Time;durP1;ratioP1;P1;durP2;ratioP2;P2;SDS_P1;SDS_P2;PMS_P1;PMS_P2;Temp;Humidity;BMP_temperature;BMP_pressure;BME280_temperature;BME280_humidity;BME280_pressure;Samples;Min_cycle;Max_cycle;Signal;HPM_P1;HPM_P2
2020/12/21 00:01:48;;;;;;;10.65;3.60;;;8.80;83.00;;;;;;5136960;27;20014;-74
2020/12/21 00:04:14;;;;;;;8.05;3.00;;;8.80;83.00;;;;;;5136864;27;20382;-74
2020/12/21 00:06:40;;;;;;;9.88;3.67;;;8.80;83.10;;;;;;5136949;27;20446;-74
2020/12/21 00:09:06;;;;;;;10.70;3.15;;;8.80;83.80;;;;;;5155383;27;20026;-74
2020/12/21 00:11:41;;;;;;;10.25;4.20;;;8.70;83.20;;;;;;5136940;27;20072;-74
2020/12/21 00:14:08;;;;;;;9.38;3.10;;;8.70;83.30;;;;;;5136402;27;20415;-74
2020/12/21 00:16:47;;;;;;;8.95;3.10;;;8.70;83.40;;;;;;5136550;27;20110;-74
2020/12/21 00:19:14;;;;;;;13.27;3.83;;;8.70;83.40;;;;;;5154865;27;20110;-73
2020/12/21 00:21:40;;;;;;;8.98;3.30;;;8.70;83.40;;;;;;5136303;27;20011;-73
2020/12/21 00:24:07;;;;;;;10.80;3.53;;;8.60;83.30;;;;;;5154795;27;20023;-74
2020/12/21 00:26:34;;;;;;;9.65;3.58;;;8.60;83.40;;;;;;5155199;27;20041;-74
2020/12/21 00:29:00;;;;;;;8.48;3.40;;;8.50;83.50;;;;;;5136239;27;20019;-74
2020/12/21 00:31:28;;;;;;;8.95;3.17;;;8.50;83.60;;;;;;5154808;27;20026;-74
2020/12/21 00:33:54;;;;;;;12.73;3.60;;;8.50;83.70;;;;;;5136735;27;20038;-74
2020/12/21 00:36:23;;;;;;;8.98;3.70;;;8.50;83.70;;;;;;5154931;27;20110;-74
2020/12/21 00:38:51;;;;;;;7.95;2.80;;;8.50;83.70;;;;;;5136436;27;20023;-74
2020/12/21 00:41:19;;;;;;;10.35;3.40;;;8.40;83.70;;;;;;5154971;27;20014;-73
2020/12/21 00:43:46;;;;;;;10.35;3.40;;;8.40;83.80;;;;;;5154883;27;20025;-73
2020/12/21 00:46:20;;;;;;;9.02;3.17;;;8.40;83.80;;;;;;5136268;27;20017;-73
2020/12/21 00:48:45;;;;;;;12.27;3.65;;;8.40;83.80;;;;;;5154821;27;20018;-73
2020/12/21 00:51:12;;;;;;;8.60;2.90;;;8.40;83.90;;;;;;5154718;27;20099;-74
2020/12/21 00:53:38;;;;;;;9.07;3.63;;;8.40;83.90;;;;;;5136388;27;20075;-73
2020/12/21 00:56:05;;;;;;;6.93;2.80;;;8.40;84.00;;;;;;5135782;27;20023;-74
2020/12/21 00:58:32;;;;;;;6.95;2.88;;;8.40;83.90;;;;;;5154407;27;20501;-74
2020/12/21 01:00:59;;;;;;;11.13;3.15;;;8.40;84.00;;;;;;5154349;27;20026;-74
2020/12/21 01:03:25;;;;;;;10.00;3.35;;;8.40;84.00;;;;;;5154333;27;20022;-73
2020/12/21 01:05:53;;;;;;;12.70;2.95;;;8.40;84.00;;;;;;5154537;27;20098;-74
2020/12/21 01:08:18;;;;;;;8.05;3.08;;;8.30;83.90;;;;;;5154473;27;20019;-74
2020/12/21 01:10:44;;;;;;;9.00;2.90;;;8.40;84.00;;;;;;5135540;27;20026;-73
2020/12/21 01:13:09;;;;;;;6.20;2.70;;;8.30;84.00;;;;;;5154261;27;20485;-74
2020/12/21 01:15:35;;;;;;;8.70;2.90;;;8.30;84.00;;;;;;5154292;27;20035;-74
2020/12/21 01:18:01;;;;;;;8.15;3.28;;;8.30;84.00;;;;;;5135563;27;20015;-74
2020/12/21 01:20:26;;;;;;;8.40;3.00;;;8.30;84.00;;;;;;5135714;27;20037;-74
2020/12/21 01:22:52;;;;;;;7.97;2.75;;;8.30;84.00;;;;;;5154685;27;20019;-74
2020/12/21 01:25:18;;;;;;;7.22;2.60;;;8.30;84.10;;;;;;5136042;27;20026;-74
2020/12/21 01:27:43;;;;;;;9.13;2.60;;;8.30;84.10;;;;;;5135496;27;20560;-73
2020/12/21 01:30:09;;;;;;;10.45;3.03;;;8.30;84.10;;;;;;5135582;27;20019;-73
2020/12/21 01:32:34;;;;;;;5.55;2.65;;;8.30;84.20;;;;;;5135470;27;20466;-74
2020/12/21 01:35:00;;;;;;;6.45;2.47;;;8.30;84.10;;;;;;5135380;27;20027;-74
2020/12/21 01:37:26;;;;;;;6.50;2.80;;;8.30;84.10;;;;;;5154199;27;20097;-74
2020/12/21 01:39:51;;;;;;;7.70;2.90;;;8.30;84.20;;;;;;5153966;27;20062;-74
2020/12/21 01:42:18;;;;;;;7.10;2.78;;;8.30;84.20;;;;;;5135363;27;20050;-73
2020/12/21 01:44:48;;;;;;;9.15;2.60;;;8.30;84.20;;;;;;5135344;27;20022;-74
2020/12/21 01:47:19;;;;;;;8.95;3.00;;;8.20;84.30;;;;;;5135275;27;20430;-74
2020/12/21 01:49:45;;;;;;;7.82;2.60;;;8.20;84.20;;;;;;5154039;27;20029;-73
2020/12/21 01:52:14;;;;;;;7.18;2.90;;;8.20;84.20;;;;;;5135349;27;20157;-74
2020/12/21 01:54:40;;;;;;;4.57;2.42;;;8.20;84.20;;;;;;5135474;27;20022;-74
2020/12/21 01:57:06;;;;;;;7.72;2.67;;;8.20;84.30;;;;;;5135450;27;20113;-74
2020/12/21 01:59:32;;;;;;;8.80;2.67;;;8.20;84.20;;;;;;5153860;27;20023;-74
2020/12/21 02:01:57;;;;;;;7.75;2.55;;;8.20;84.20;;;;;;5135143;27;20485;-74
2020/12/21 02:04:23;;;;;;;8.73;2.80;;;8.20;84.20;;;;;;5137293;27;20355;-73
2020/12/21 02:06:49;;;;;;;5.68;2.55;;;8.20;84.30;;;;;;5157493;27;20019;-73
2020/12/21 02:09:15;;;;;;;10.70;2.55;;;8.10;84.20;;;;;;5138928;27;20026;-73
2020/12/21 02:11:41;;;;;;;6.25;2.65;;;8.10;84.30;;;;;;5157417;27;20097;-73
2020/12/21 02:14:08;;;;;;;8.95;2.83;;;8.10;84.30;;;;;;5138694;27;20422;-74
2020/12/21 02:16:34;;;;;;;6.72;2.38;;;8.10;84.30;;;;;;5138632;27;20119;-74
2020/12/21 02:18:59;;;;;;;6.22;2.92;;;8.10;84.30;;;;;;5138548;27;20076;-74
2020/12/21 02:21:25;;;;;;;5.88;2.53;;;8.10;84.30;;;;;;5138706;27;20023;-74
2020/12/21 02:23:51;;;;;;;5.45;2.40;;;8.10;84.30;;;;;;5138527;27;20408;-75
2020/12/21 02:26:16;;;;;;;8.65;2.55;;;8.10;84.30;;;;;;5138860;27;20022;-73
2020/12/21 02:28:42;;;;;;;10.32;2.67;;;8.10;84.30;;;;;;5138419;27;20097;-74
2020/12/21 02:31:08;;;;;;;9.25;2.55;;;8.10;84.30;;;;;;5138584;27;20027;-73
2020/12/21 02:33:34;;;;;;;5.60;2.58;;;8.10;84.30;;;;;;5138381;27;20027;-74
2020/12/21 02:36:00;;;;;;;9.60;2.72;;;8.10;84.30;;;;;;5138301;27;20491;-74
2020/12/21 02:38:26;;;;;;;5.55;2.45;;;8.10;84.30;;;;;;5138133;27;20019;-74
2020/12/21 02:40:52;;;;;;;6.32;2.50;;;8.10;84.30;;;;;;5138478;27;20011;-74
2020/12/21 02:43:19;;;;;;;8.02;3.10;;;8.00;84.30;;;;;;5156700;27;20488;-74
2020/12/21 02:45:44;;;;;;;5.35;2.40;;;8.10;84.40;;;;;;5156933;27;20015;-73
2020/12/21 02:48:10;;;;;;;6.53;2.50;;;8.00;84.30;;;;;;5156697;27;20027;-74
2020/12/21 02:50:36;;;;;;;5.57;2.42;;;8.10;84.40;;;;;;5137678;27;20030;-75
2020/12/21 02:53:02;;;;;;;6.85;2.85;;;8.00;84.30;;;;;;5156626;27;20031;-73
2020/12/21 02:55:28;;;;;;;8.88;2.65;;;8.00;84.40;;;;;;5137769;27;20495;-73
2020/12/21 02:57:53;;;;;;;6.30;2.13;;;8.10;84.40;;;;;;5156386;27;20026;-73
2020/12/21 03:00:19;;;;;;;7.25;2.60;;;8.00;84.40;;;;;;5156386;27;20031;-74
2020/12/21 03:02:45;;;;;;;5.72;2.20;;;8.10;84.40;;;;;;5156542;27;20061;-74
2020/12/21 03:05:11;;;;;;;9.05;2.45;;;8.00;84.40;;;;;;5137698;27;20030;-74
2020/12/21 03:07:37;;;;;;;10.63;2.55;;;8.00;84.40;;;;;;5137601;27;20591;-74
2020/12/21 03:10:03;;;;;;;9.02;2.35;;;8.00;84.40;;;;;;5156215;27;20050;-73
2020/12/21 03:12:29;;;;;;;6.65;2.10;;;8.10;85.10;;;;;;5137515;27;20038;-74
2020/12/21 03:14:55;;;;;;;7.13;2.20;;;8.00;84.40;;;;;;5136594;27;20027;-74
2020/12/21 03:17:20;;;;;;;5.88;2.42;;;8.00;84.40;;;;;;5155985;27;20030;-74
2020/12/21 03:19:46;;;;;;;6.68;2.38;;;8.00;85.10;;;;;;5137287;27;20035;-74
2020/12/21 03:22:12;;;;;;;7.15;2.13;;;8.00;84.50;;;;;;5137542;27;20511;-74
2020/12/21 03:24:38;;;;;;;7.53;2.25;;;8.00;84.40;;;;;;5156157;27;20058;-74
2020/12/21 03:27:03;;;;;;;5.57;2.40;;;8.00;84.40;;;;;;5156148;27;20114;-73
2020/12/21 03:29:29;;;;;;;6.38;2.00;;;8.00;84.50;;;;;;5155999;27;20093;-74
2020/12/21 03:31:55;;;;;;;6.43;2.20;;;8.00;84.50;;;;;;5155690;27;20091;-73
2020/12/21 03:34:20;;;;;;;6.63;2.50;;;8.00;84.50;;;;;;5137061;27;20126;-74
2020/12/21 03:36:46;;;;;;;8.45;2.22;;;8.00;84.50;;;;;;5155707;27;20389;-74
2020/12/21 03:39:12;;;;;;;9.40;3.03;;;7.90;84.50;;;;;;5155747;27;20076;-73
2020/12/21 03:41:38;;;;;;;6.35;2.05;;;7.90;84.50;;;;;;5136909;27;20030;-74
2020/12/21 03:44:03;;;;;;;8.02;2.20;;;7.90;84.50;;;;;;5155314;27;20065;-74
2020/12/21 03:46:29;;;;;;;7.50;2.53;;;7.90;84.50;;;;;;5136657;27;20026;-74
2020/12/21 03:48:55;;;;;;;5.18;1.98;;;7.90;84.60;;;;;;5155351;27;20074;-73
2020/12/21 03:51:21;;;;;;;3.60;2.35;;;7.90;84.70;;;;;;5155231;27;20038;-74
2020/12/21 03:53:46;;;;;;;11.60;3.00;;;7.90;84.70;;;;;;5136668;27;20080;-74
2020/12/21 03:56:12;;;;;;;7.63;2.20;;;7.90;84.70;;;;;;5136621;27;20172;-74
2020/12/21 03:58:38;;;;;;;6.63;2.30;;;7.90;84.70;;;;;;5136535;27;20086;-74
2020/12/21 04:01:03;;;;;;;6.20;2.63;;;7.90;84.70;;;;;;5155084;27;20466;-73
2020/12/21 04:03:29;;;;;;;9.98;2.47;;;7.80;84.70;;;;;;5136594;27;20033;-74
2020/12/21 04:05:56;;;;;;;7.15;2.47;;;7.90;84.80;;;;;;5155151;27;20042;-74
2020/12/21 04:08:22;;;;;;;6.30;2.17;;;7.90;84.70;;;;;;5154977;27;20496;-74
2020/12/21 04:10:48;;;;;;;5.90;2.30;;;7.90;84.70;;;;;;5155322;27;20061;-74
2020/12/21 04:13:14;;;;;;;5.63;1.85;;;7.90;84.70;;;;;;5154861;27;20157;-74
2020/12/21 04:15:40;;;;;;;6.35;2.30;;;8.00;84.60;;;;;;5136485;27;20118;-73
2020/12/21 04:18:06;;;;;;;4.55;1.95;;;8.00;84.50;;;;;;5136167;27;20117;-73
2020/12/21 04:20:32;;;;;;;7.82;2.53;;;8.00;84.50;;;;;;5136019;27;20465;-74
2020/12/21 04:22:59;;;;;;;7.70;2.40;;;8.00;84.40;;;;;;5155014;27;20112;-74
2020/12/21 04:25:24;;;;;;;8.60;2.35;;;8.00;84.40;;;;;;5136216;27;20019;-74
2020/12/21 04:27:50;;;;;;;8.05;2.42;;;8.00;84.50;;;;;;5135963;27;20030;-74
2020/12/21 04:30:16;;;;;;;6.00;2.35;;;8.00;84.50;;;;;;5136180;27;20037;-74
2020/12/21 04:32:42;;;;;;;6.40;2.10;;;7.90;84.50;;;;;;5136118;27;20026;-74
2020/12/21 04:35:07;;;;;;;5.45;2.00;;;7.90;84.60;;;;;;5135898;27;20031;-73
2020/12/21 04:37:33;;;;;;;6.15;2.05;;;8.00;84.60;;;;;;5136136;27;20079;-74
2020/12/21 04:39:59;;;;;;;5.75;1.77;;;8.00;84.60;;;;;;5135903;27;20037;-74
2020/12/21 04:42:25;;;;;;;4.90;2.13;;;8.00;84.50;;;;;;5135998;27;20027;-74
2020/12/21 04:44:51;;;;;;;5.00;2.13;;;7.90;84.50;;;;;;5135965;27;20079;-74
2020/12/21 04:47:18;;;;;;;5.18;2.40;;;8.00;84.60;;;;;;5154427;27;20358;-74
2020/12/21 04:49:45;;;;;;;5.07;2.10;;;8.00;84.60;;;;;;5135837;27;20493;-73
2020/12/21 04:52:11;;;;;;;5.22;2.05;;;7.90;84.60;;;;;;5135582;27;20035;-74
2020/12/21 04:54:37;;;;;;;8.05;2.25;;;7.90;84.60;;;;;;5135563;27;20050;-74
2020/12/21 04:57:03;;;;;;;4.88;2.05;;;7.80;84.60;;;;;;5135690;27;20064;-74
2020/12/21 04:59:29;;;;;;;6.82;2.30;;;7.90;84.70;;;;;;5154295;27;20482;-74
2020/12/21 05:01:55;;;;;;;5.55;2.20;;;7.80;84.70;;;;;;5135908;27;20101;-74
2020/12/21 05:04:22;;;;;;;5.53;2.13;;;7.80;84.70;;;;;;5135657;27;20033;-75
2020/12/21 05:06:53;;;;;;;6.63;2.33;;;7.80;84.70;;;;;;5135834;27;20026;-75
2020/12/21 05:09:22;;;;;;;5.65;1.70;;;7.80;84.80;;;;;;5135672;27;20380;-74
2020/12/21 05:12:07;;;;;;;6.82;2.03;;;7.80;84.80;;;;;;5154375;27;20023;-73
2020/12/21 05:14:35;;;;;;;7.38;2.00;;;7.80;84.90;;;;;;5135596;27;20236;-74
2020/12/21 05:17:10;;;;;;;8.80;2.13;;;7.80;84.90;;;;;;5135505;27;20121;-74
2020/12/21 05:19:36;;;;;;;7.93;1.92;;;7.80;84.90;;;;;;5153935;27;20213;-74
2020/12/21 05:22:02;;;;;;;5.72;2.20;;;7.80;84.90;;;;;;5154001;27;20023;-73
2020/12/21 05:24:28;;;;;;;8.38;1.95;;;7.70;84.90;;;;;;5154310;27;20082;-74
2020/12/21 05:26:53;;;;;;;5.68;1.80;;;7.70;84.90;;;;;;5135487;27;20027;-74
2020/12/21 05:29:28;;;;;;;5.55;1.90;;;7.80;84.90;;;;;;5135462;27;20087;-73
2020/12/21 05:31:56;;;;;;;7.80;2.13;;;7.80;84.90;;;;;;5135403;27;20454;-74
2020/12/21 05:34:28;;;;;;;6.47;2.20;;;7.80;84.80;;;;;;5154057;27;20031;-74
2020/12/21 05:36:54;;;;;;;5.53;1.55;;;7.80;84.80;;;;;;5135428;27;20038;-74
2020/12/21 05:39:20;;;;;;;4.72;1.70;;;7.80;84.80;;;;;;5156027;27;20034;-74
2020/12/21 05:41:45;;;;;;;7.40;2.47;;;7.80;84.80;;;;;;5139402;27;20050;-74
2020/12/21 05:44:11;;;;;;;7.07;2.10;;;7.80;84.80;;;;;;5158121;27;20019;-74
2020/12/21 05:46:37;;;;;;;5.68;1.70;;;7.80;84.90;;;;;;5157951;27;20118;-73
2020/12/21 05:49:03;;;;;;;4.68;1.80;;;7.80;84.90;;;;;;5139577;27;20127;-73
2020/12/21 05:51:31;;;;;;;4.68;1.75;;;7.80;84.90;;;;;;5157655;27;20421;-74
2020/12/21 05:54:02;;;;;;;7.03;2.20;;;7.80;84.90;;;;;;5157695;27;20039;-74
2020/12/21 05:56:33;;;;;;;5.43;1.80;;;7.70;84.90;;;;;;5139184;27;20080;-74
2020/12/21 05:58:59;;;;;;;4.22;1.70;;;7.80;84.90;;;;;;5158277;27;20035;-73
2020/12/21 06:01:26;;;;;;;4.00;2.00;;;7.70;84.90;;;;;;5139037;27;20094;-74
2020/12/21 06:04:02;;;;;;;5.70;2.28;;;7.70;84.90;;;;;;5139067;27;20109;-74
2020/12/21 06:06:30;;;;;;;5.68;2.05;;;7.70;84.90;;;;;;5157362;27;20473;-74
2020/12/21 06:08:58;;;;;;;4.38;1.73;;;7.70;84.90;;;;;;5138745;27;20159;-73
2020/12/21 06:11:28;;;;;;;5.85;1.80;;;7.70;84.90;;;;;;5138676;27;20034;-75
2020/12/21 06:13:56;;;;;;;5.38;2.35;;;7.70;84.90;;;;;;5138568;27;20027;-74
2020/12/21 06:16:23;;;;;;;6.93;1.95;;;7.70;84.90;;;;;;5157069;27;20034;-74
2020/12/21 06:18:59;;;;;;;3.75;1.92;;;7.70;84.90;;;;;;5138460;27;20114;-74
2020/12/21 06:21:55;;;;;;;7.35;2.22;;;7.70;84.90;;;;;;5138569;27;20424;-74
2020/12/21 06:24:21;;;;;;;6.07;2.83;;;7.70;84.90;;;;;;5125090;27;20027;-74
2020/12/21 06:26:47;;;;;;;5.43;2.13;;;7.70;84.90;;;;;;5138464;27;20019;-74
2020/12/21 06:29:22;;;;;;;8.77;2.30;;;7.70;84.80;;;;;;5157045;27;20027;-74
2020/12/21 06:31:51;;;;;;;6.60;2.13;;;7.70;84.80;;;;;;5156912;27;20027;-74
2020/12/21 06:34:35;;;;;;;9.25;2.65;;;7.70;84.70;;;;;;5138300;27;20079;-74
2020/12/21 06:37:03;;;;;;;4.28;2.25;;;7.70;84.70;;;;;;5138281;27;20541;-74
2020/12/21 06:39:30;;;;;;;4.43;2.08;;;7.70;84.70;;;;;;5156761;27;20026;-73
2020/12/21 06:42:07;;;;;;;4.70;2.22;;;7.70;84.70;;;;;;5138232;27;20589;-73
2020/12/21 06:44:33;;;;;;;4.75;1.73;;;7.70;84.70;;;;;;5138084;27;20027;-73
2020/12/21 06:46:59;;;;;;;9.65;2.25;;;7.70;84.70;;;;;;5137819;27;20044;-74
2020/12/21 06:49:26;;;;;;;6.15;2.30;;;7.60;84.60;;;;;;5156279;27;20030;-74
2020/12/21 06:51:52;;;;;;;10.50;3.05;;;7.60;84.60;;;;;;5137650;27;20070;-74
2020/12/21 06:54:19;;;;;;;6.40;2.65;;;7.60;84.70;;;;;;5137921;27;20095;-74
2020/12/21 06:56:47;;;;;;;6.07;2.55;;;7.60;84.80;;;;;;5137966;27;20019;-75
2020/12/21 06:59:17;;;;;;;6.47;2.60;;;7.50;84.80;;;;;;5137701;27;20099;-73
2020/12/21 07:01:45;;;;;;;4.88;2.00;;;7.50;84.80;;;;;;5137805;27;20060;-74
2020/12/21 07:04:15;;;;;;;6.15;2.42;;;7.50;84.80;;;;;;5137769;27;20019;-73
2020/12/21 07:06:41;;;;;;;7.72;2.33;;;7.50;84.80;;;;;;5156415;27;20110;-74
2020/12/21 07:09:08;;;;;;;6.95;2.83;;;7.50;84.90;;;;;;5156387;27;20037;-74
2020/12/21 07:11:36;;;;;;;8.07;2.20;;;7.40;84.90;;;;;;5137885;27;20033;-74
2020/12/21 07:14:02;;;;;;;6.15;2.50;;;7.40;84.80;;;;;;5156385;27;20069;-80
2020/12/21 07:16:27;;;;;;;5.97;2.20;;;7.40;84.90;;;;;;5138449;27;20022;-74
2020/12/21 07:18:53;;;;;;;5.53;2.53;;;7.40;84.90;;;;;;5156420;27;20029;-75
2020/12/21 07:21:19;;;;;;;7.00;2.80;;;7.40;84.80;;;;;;5137540;27;20163;-74
2020/12/21 07:23:45;;;;;;;5.25;2.38;;;7.40;84.80;;;;;;5156413;27;20030;-74
2020/12/21 07:26:13;;;;;;;7.55;2.40;;;7.50;84.90;;;;;;5137428;27;20528;-74
2020/12/21 07:28:39;;;;;;;6.20;2.30;;;7.50;84.80;;;;;;5137537;27;20113;-74
2020/12/21 07:31:06;;;;;;;8.60;3.42;;;7.50;84.80;;;;;;5137512;27;20046;-73
2020/12/21 07:33:33;;;;;;;8.90;3.00;;;7.40;84.70;;;;;;5156108;27;20027;-72
2020/12/21 07:35:59;;;;;;;8.00;3.08;;;7.50;84.90;;;;;;5156062;27;20065;-74
2020/12/21 07:38:25;;;;;;;8.55;3.22;;;7.50;84.90;;;;;;5155626;27;20026;-75
2020/12/21 07:40:53;;;;;;;9.23;4.47;;;7.50;84.90;;;;;;5157239;27;20019;-71
2020/12/21 07:43:41;;;;;;;10.43;5.22;;;7.50;84.90;;;;;;5136637;27;20185;-72
2020/12/21 07:46:22;;;;;;;12.80;5.20;;;7.40;85.00;;;;;;5136674;27;20014;-71
2020/12/21 07:48:49;;;;;;;11.63;5.55;;;7.50;85.10;;;;;;5136558;27;20114;-75
2020/12/21 07:51:19;;;;;;;10.55;4.72;;;7.40;85.10;;;;;;5133096;27;20043;-72
2020/12/21 07:53:45;;;;;;;7.78;3.90;;;7.40;85.20;;;;;;5133729;27;20064;-72
2020/12/21 07:56:18;;;;;;;8.77;3.63;;;7.40;85.20;;;;;;5133047;27;20020;-73
2020/12/21 07:58:45;;;;;;;9.20;3.25;;;7.40;85.30;;;;;;5133376;27;20031;-71
2020/12/21 08:01:10;;;;;;;6.50;3.00;;;7.40;85.30;;;;;;5132883;27;20398;-73
2020/12/21 08:03:39;;;;;;;8.32;3.33;;;7.40;85.40;;;;;;5134751;27;20034;-73
2020/12/21 08:06:05;;;;;;;6.15;2.70;;;7.40;85.40;;;;;;5134503;27;20023;-74
2020/12/21 08:08:31;;;;;;;5.13;2.30;;;7.50;85.40;;;;;;5134306;27;20024;-80
2020/12/21 08:10:58;;;;;;;10.77;2.85;;;7.40;85.40;;;;;;5134459;27;20075;-73
2020/12/21 08:13:24;;;;;;;7.35;2.42;;;7.50;85.40;;;;;;5134410;27;20035;-73
2020/12/21 08:15:49;;;;;;;6.57;2.28;;;7.50;85.30;;;;;;5134670;27;20094;-73
2020/12/21 08:18:15;;;;;;;7.38;2.63;;;7.60;85.20;;;;;;5133098;27;20069;-73
2020/12/21 08:20:48;;;;;;;5.90;2.42;;;7.70;85.10;;;;;;5133089;27;20035;-73
2020/12/21 08:23:24;;;;;;;5.77;2.00;;;7.70;84.90;;;;;;5134322;27;20030;-74
2020/12/21 08:25:50;;;;;;;4.80;2.50;;;7.80;84.90;;;;;;5132547;27;20042;-73
2020/12/21 08:28:29;;;;;;;5.20;2.60;;;7.80;84.90;;;;;;5132960;27;20486;-72
2020/12/21 08:31:11;;;;;;;5.05;2.22;;;7.80;84.90;;;;;;5134427;27;20027;-71
2020/12/21 08:33:40;;;;;;;4.60;2.20;;;7.80;84.90;;;;;;5132757;27;20026;-72
2020/12/21 08:36:21;;;;;;;4.82;1.92;;;7.90;84.80;;;;;;5132451;27;20099;-72
2020/12/21 08:38:47;;;;;;;3.92;1.67;;;7.90;84.70;;;;;;5132516;27;20035;-72
2020/12/21 08:41:13;;;;;;;5.80;1.80;;;8.00;85.00;;;;;;5134039;27;20023;-74
2020/12/21 08:43:39;;;;;;;4.63;1.92;;;8.00;85.00;;;;;;5133920;27;20378;-73
2020/12/21 08:46:10;;;;;;;5.30;1.95;;;8.00;85.00;;;;;;5133442;27;20023;-72
2020/12/21 08:48:40;;;;;;;4.50;1.77;;;8.10;85.00;;;;;;5132644;27;20045;-73
2020/12/21 08:51:05;;;;;;;3.90;2.13;;;8.10;84.90;;;;;;5137683;27;20039;-72
2020/12/21 08:53:31;;;;;;;4.03;1.67;;;8.20;85.20;;;;;;5154161;27;20041;-73
2020/12/21 08:55:57;;;;;;;4.20;1.67;;;8.20;85.00;;;;;;5135550;27;20033;-73
2020/12/21 08:58:22;;;;;;;8.90;1.95;;;8.20;84.90;;;;;;5135197;27;20023;-72
2020/12/21 09:00:48;;;;;;;6.40;2.05;;;8.20;84.70;;;;;;5135440;27;20015;-72
2020/12/21 09:03:14;;;;;;;5.72;2.05;;;8.30;84.70;;;;;;5154138;27;20109;-73
2020/12/21 09:05:39;;;;;;;5.40;2.03;;;8.30;84.50;;;;;;5135790;27;20156;-74
2020/12/21 09:08:05;;;;;;;6.38;1.80;;;8.30;84.50;;;;;;5135630;27;20485;-74
2020/12/21 09:10:30;;;;;;;6.30;1.90;;;8.40;84.50;;;;;;5154403;27;20390;-73
2020/12/21 09:12:56;;;;;;;5.93;1.75;;;8.40;84.50;;;;;;5154433;27;20125;-72
2020/12/21 09:15:22;;;;;;;6.65;1.77;;;8.40;84.40;;;;;;5158198;27;20113;-73
2020/12/21 09:17:48;;;;;;;4.60;1.75;;;8.40;84.40;;;;;;5158876;27;20026;-72
2020/12/21 09:20:13;;;;;;;5.20;1.60;;;8.50;84.30;;;;;;5139751;27;20046;-73
2020/12/21 09:22:39;;;;;;;4.68;1.42;;;8.50;84.20;;;;;;5158557;27;20060;-74
2020/12/21 09:25:04;;;;;;;3.70;1.58;;;8.60;84.40;;;;;;5158525;27;20023;-73
2020/12/21 09:27:30;;;;;;;5.82;1.70;;;8.60;84.30;;;;;;5158490;27;20026;-73
2020/12/21 09:29:56;;;;;;;4.07;1.65;;;8.60;84.10;;;;;;5158560;27;20027;-73
2020/12/21 09:32:21;;;;;;;6.82;1.73;;;8.70;84.10;;;;;;5139480;27;20031;-73
2020/12/21 09:34:47;;;;;;;4.20;1.70;;;8.70;84.00;;;;;;5139577;27;20140;-74
2020/12/21 09:37:12;;;;;;;4.53;1.60;;;8.70;83.90;;;;;;5157965;27;20034;-72
2020/12/21 09:39:38;;;;;;;4.35;1.90;;;8.80;83.90;;;;;;5139210;27;20495;-75
2020/12/21 09:42:04;;;;;;;5.13;1.60;;;8.80;83.80;;;;;;5157996;27;20108;-73
2020/12/21 09:44:30;;;;;;;4.35;1.63;;;8.90;83.70;;;;;;5158050;27;20072;-74
2020/12/21 09:46:56;;;;;;;4.68;1.77;;;8.80;83.60;;;;;;5159343;27;20026;-78
2020/12/21 09:49:22;;;;;;;4.00;1.65;;;8.80;83.60;;;;;;5143473;27;20117;-73
2020/12/21 09:51:51;;;;;;;3.97;1.70;;;8.90;83.60;;;;;;5158013;27;20498;-73
2020/12/21 09:54:18;;;;;;;6.47;2.00;;;8.90;83.60;;;;;;5138963;27;20035;-73
2020/12/21 09:56:47;;;;;;;5.93;2.30;;;8.90;83.60;;;;;;5157963;27;20030;-75
2020/12/21 09:59:13;;;;;;;8.02;1.88;;;9.00;83.60;;;;;;5157685;27;20042;-74
2020/12/21 10:01:39;;;;;;;4.90;2.38;;;9.00;83.50;;;;;;5139145;27;20023;-75
2020/12/21 10:04:04;;;;;;;5.30;2.22;;;9.00;83.50;;;;;;5157845;27;20034;-74
2020/12/21 10:06:30;;;;;;;8.23;2.30;;;8.90;83.40;;;;;;5139363;27;20018;-74
2020/12/21 10:08:55;;;;;;;4.30;2.05;;;9.00;83.50;;;;;;5139002;27;20494;-72
2020/12/21 10:11:21;;;;;;;7.03;2.15;;;9.00;83.40;;;;;;5157565;27;20439;-75
2020/12/21 10:13:48;;;;;;;5.45;2.22;;;9.00;83.30;;;;;;5138590;27;20079;-74
2020/12/21 10:16:14;;;;;;;5.55;1.77;;;9.00;83.20;;;;;;5139064;27;20541;-75
2020/12/21 10:18:40;;;;;;;8.70;1.83;;;9.00;83.30;;;;;;5157777;27;20031;-74
2020/12/21 10:21:06;;;;;;;9.05;2.03;;;9.10;83.30;;;;;;5138670;27;20034;-74
2020/12/21 10:23:32;;;;;;;6.80;2.08;;;9.10;83.30;;;;;;5138823;27;20050;-74
2020/12/21 10:26:01;;;;;;;3.03;1.63;;;9.10;83.20;;;;;;5156742;27;20053;-74
2020/12/21 10:28:27;;;;;;;6.10;2.33;;;9.10;83.20;;;;;;5138471;27;20423;-74
2020/12/21 10:30:52;;;;;;;4.75;2.05;;;9.10;83.20;;;;;;5157482;27;20087;-73
2020/12/21 10:33:18;;;;;;;2.65;1.70;;;9.10;83.20;;;;;;5156952;27;20019;-74
2020/12/21 10:35:44;;;;;;;5.68;1.80;;;9.10;83.20;;;;;;5156920;27;20201;-73
2020/12/21 10:38:09;;;;;;;6.93;2.20;;;9.20;83.20;;;;;;5138082;27;20057;-73
2020/12/21 10:40:35;;;;;;;7.30;2.20;;;9.10;83.20;;;;;;5157225;27;20031;-73
2020/12/21 10:43:01;;;;;;;3.63;2.50;;;9.20;83.40;;;;;;5156461;27;20080;-74
2020/12/21 10:45:26;;;;;;;4.32;2.47;;;9.20;83.40;;;;;;5137857;27;20117;-73
2020/12/21 10:47:52;;;;;;;5.93;2.55;;;9.20;83.40;;;;;;5156677;27;20530;-74
2020/12/21 10:50:18;;;;;;;4.57;2.00;;;9.20;83.60;;;;;;5137679;27;20554;-74
2020/12/21 10:52:43;;;;;;;6.75;3.50;;;9.20;83.60;;;;;;5137666;27;20359;-75
2020/12/21 10:55:09;;;;;;;7.57;4.22;;;9.20;83.60;;;;;;5156309;27;20423;-73
2020/12/21 10:57:38;;;;;;;5.18;2.47;;;9.20;83.70;;;;;;5157014;27;20027;-75
2020/12/21 11:00:05;;;;;;;5.22;2.28;;;9.30;83.80;;;;;;5137583;27;20125;-74
2020/12/21 11:02:31;;;;;;;6.38;2.40;;;9.30;83.80;;;;;;5137570;27;20011;-74
2020/12/21 11:04:56;;;;;;;6.65;2.60;;;9.30;83.80;;;;;;5137491;27;20048;-75
2020/12/21 11:07:25;;;;;;;7.40;2.55;;;9.30;83.80;;;;;;5137488;27;20014;-75
2020/12/21 11:09:50;;;;;;;7.78;2.40;;;9.30;83.90;;;;;;5156101;27;20099;-75
2020/12/21 11:12:17;;;;;;;7.05;2.30;;;9.30;84.00;;;;;;5137393;27;20015;-74
2020/12/21 11:14:43;;;;;;;7.53;2.30;;;9.30;84.10;;;;;;5156242;27;20137;-74
2020/12/21 11:17:09;;;;;;;5.68;2.63;;;9.30;84.10;;;;;;5155994;27;20026;-74
2020/12/21 11:19:34;;;;;;;5.70;2.28;;;9.30;84.20;;;;;;5155822;27;20074;-74
2020/12/21 11:22:00;;;;;;;8.38;2.55;;;9.30;84.30;;;;;;5136983;27;20044;-75
2020/12/21 11:24:28;;;;;;;5.25;2.47;;;9.30;84.40;;;;;;5156593;27;20026;-74
2020/12/21 11:26:53;;;;;;;9.50;2.58;;;9.30;84.50;;;;;;5155805;27;20022;-74
2020/12/21 11:29:19;;;;;;;4.55;2.20;;;9.30;85.20;;;;;;5137167;27;20027;-74
2020/12/21 11:31:45;;;;;;;9.27;2.60;;;9.30;85.30;;;;;;5155688;27;20109;-74
2020/12/21 11:34:10;;;;;;;4.57;2.30;;;9.30;85.30;;;;;;5155828;27;20391;-74
2020/12/21 11:36:36;;;;;;;5.88;2.55;;;9.20;85.30;;;;;;5136222;27;20027;-74
2020/12/21 11:39:02;;;;;;;6.90;2.58;;;9.30;85.40;;;;;;5155457;27;20033;-75
2020/12/21 11:41:29;;;;;;;6.22;2.70;;;9.30;85.50;;;;;;5136833;27;20489;-75
2020/12/21 11:43:55;;;;;;;6.93;2.53;;;9.30;85.60;;;;;;5136801;27;20087;-75
2020/12/21 11:46:27;;;;;;;6.35;2.80;;;9.20;85.70;;;;;;5136772;27;20018;-75
2020/12/21 11:48:53;;;;;;;6.70;2.90;;;9.20;85.70;;;;;;5155398;27;20109;-74
2020/12/21 11:51:18;;;;;;;5.68;2.20;;;9.20;85.70;;;;;;5136528;27;20077;-76
2020/12/21 11:53:44;;;;;;;7.90;3.00;;;9.20;85.90;;;;;;5136581;27;20474;-74
2020/12/21 11:56:16;;;;;;;3.45;2.15;;;9.20;85.90;;;;;;5136687;27;20031;-75
2020/12/21 11:58:41;;;;;;;7.28;2.75;;;9.10;85.90;;;;;;5155110;27;20046;-75
2020/12/21 12:01:07;;;;;;;5.40;2.17;;;9.20;86.00;;;;;;5155454;27;20405;-75
2020/12/21 12:03:34;;;;;;;6.10;2.83;;;9.20;86.20;;;;;;5152009;27;20023;-74
2020/12/21 12:06:00;;;;;;;6.80;2.60;;;9.10;86.20;;;;;;5136426;27;20019;-74
2020/12/21 12:08:26;;;;;;;2.88;2.20;;;9.10;86.40;;;;;;5136403;27;20382;-75
2020/12/21 12:10:51;;;;;;;5.95;2.78;;;9.10;86.40;;;;;;5136415;27;20105;-75
2020/12/21 12:13:17;;;;;;;6.78;2.70;;;9.20;86.60;;;;;;5155137;27;20079;-75
2020/12/21 12:15:43;;;;;;;6.93;2.30;;;9.20;86.60;;;;;;5155188;27;20022;-75
2020/12/21 12:18:08;;;;;;;3.60;2.40;;;9.10;86.70;;;;;;5155167;27;20058;-75
2020/12/21 12:20:34;;;;;;;3.63;2.28;;;9.10;86.80;;;;;;5154843;27;20019;-74
2020/12/21 12:23:00;;;;;;;6.28;2.25;;;9.10;86.80;;;;;;5154963;27;20554;-75
2020/12/21 12:25:26;;;;;;;6.90;2.20;;;9.10;87.00;;;;;;5136124;27;20019;-75
2020/12/21 12:27:51;;;;;;;7.13;2.30;;;9.10;87.00;;;;;;5155057;27;20051;-73
2020/12/21 12:30:17;;;;;;;6.60;2.22;;;9.10;87.10;;;;;;5154557;27;20083;-73
2020/12/21 12:32:42;;;;;;;3.92;2.20;;;9.10;87.20;;;;;;5154751;27;20046;-73
2020/12/21 12:35:08;;;;;;;5.95;2.00;;;9.10;87.40;;;;;;5135973;27;20027;-73
2020/12/21 12:37:34;;;;;;;4.70;2.20;;;9.10;87.70;;;;;;5136227;27;20018;-73
2020/12/21 12:39:59;;;;;;;3.95;2.53;;;9.10;87.80;;;;;;5154322;27;20035;-72
2020/12/21 12:42:26;;;;;;;5.78;2.47;;;9.00;88.00;;;;;;5154407;27;20030;-72
2020/12/21 12:44:52;;;;;;;4.07;2.05;;;9.00;88.10;;;;;;5154697;27;20018;-72
2020/12/21 12:47:17;;;;;;;6.15;2.35;;;9.00;88.30;;;;;;5135938;27;20019;-73
2020/12/21 12:49:43;;;;;;;8.45;2.22;;;9.00;88.40;;;;;;5136070;27;20030;-73
2020/12/21 12:52:09;;;;;;;26.55;3.38;;;9.00;88.60;;;;;;5154457;27;20486;-72
2020/12/21 12:54:35;;;;;;;3.97;1.92;;;9.00;88.70;;;;;;5135814;27;20414;-73